sensor_id;sensor_type;location;lat;lon;timestamp;P1;durP1;ratioP1;P2;durP2;ratioP2
46322;SDS011;32044;52.386;13.278;2022-12-07T00:01:13;30.75;;;15.05;;
46322;SDS011;32044;52.386;13.278;2022-12-07T00:03:40;27.17;;;15.20;;
46322;SDS011;32044;52.386;13.278;2022-12-07T00:06:07;29.63;;;16.00;;
46322;SDS011;32044;52.386;13.278;2022-12-07T00:08:33;33.03;;;16.35;;
46322;SDS011;32044;52.386;13.278;2022-12-07T00:11:02;28.10;;;15.35;;
46322;SDS011;32044;52.386;13.278;2022-12-07T00:13:32;27.45;;;15.80;;
46322;SDS011;32044;52.386;13.278;2022-12-07T00:16:11;28.80;;;15.38;;
46322;SDS011;32044;52.386;13.278;2022-12-07T00:18:38;28.38;;;15.77;;
46322;SDS011;32044;52.386;13.278;2022-12-07T00:21:06;24.60;;;14.43;;
46322;SDS011;32044;52.386;13.278;2022-12-07T00:23:32;27.13;;;15.07;;
46322;SDS011;32044;52.386;13.278;2022-12-07T00:26:05;24.33;;;14.23;;
46322;SDS011;32044;52.386;13.278;2022-12-07T00:28:30;24.67;;;14.20;;
46322;SDS011;32044;52.386;13.278;2022-12-07T00:30:59;27.77;;;14.90;;
46322;SDS011;32044;52.386;13.278;2022-12-07T00:33:26;24.60;;;13.43;;
46322;SDS011;32044;52.386;13.278;2022-12-07T00:35:59;21.30;;;12.73;;
46322;SDS011;32044;52.386;13.278;2022-12-07T00:38:27;23.55;;;13.13;;
46322;SDS011;32044;52.386;13.278;2022-12-07T00:41:07;21.35;;;11.63;;
46322;SDS011;32044;52.386;13.278;2022-12-07T00:43:35;22.27;;;12.60;;
46322;SDS011;32044;52.386;13.278;2022-12-07T00:46:00;24.80;;;13.30;;
46322;SDS011;32044;52.386;13.278;2022-12-07T00:48:26;26.27;;;14.48;;
46322;SDS011;32044;52.386;13.278;2022-12-07T00:50:51;24.17;;;12.75;;
46322;SDS011;32044;52.386;13.278;2022-12-07T00:53:16;23.40;;;13.27;;
46322;SDS011;32044;52.386;13.278;2022-12-07T00:55:42;25.67;;;13.82;;
46322;SDS011;32044;52.386;13.278;2022-12-07T00:58:07;27.50;;;13.93;;
46322;SDS011;32044;52.386;13.278;2022-12-07T01:00:33;23.40;;;13.20;;
46322;SDS011;32044;52.386;13.278;2022-12-07T01:03:00;24.77;;;13.38;;
46322;SDS011;32044;52.386;13.278;2022-12-07T01:05:25;25.60;;;13.55;;
46322;SDS011;32044;52.386;13.278;2022-12-07T01:07:51;20.20;;;11.70;;
46322;SDS011;32044;52.386;13.278;2022-12-07T01:10:16;24.00;;;12.05;;
46322;SDS011;32044;52.386;13.278;2022-12-07T01:12:42;19.13;;;11.10;;
46322;SDS011;32044;52.386;13.278;2022-12-07T01:15:07;20.55;;;11.20;;
46322;SDS011;32044;52.386;13.278;2022-12-07T01:17:33;21.77;;;12.07;;
46322;SDS011;32044;52.386;13.278;2022-12-07T01:19:58;21.70;;;12.07;;
46322;SDS011;32044;52.386;13.278;2022-12-07T01:22:23;19.63;;;12.02;;
46322;SDS011;32044;52.386;13.278;2022-12-07T01:24:49;20.27;;;12.80;;
46322;SDS011;32044;52.386;13.278;2022-12-07T01:27:14;21.83;;;12.77;;
46322;SDS011;32044;52.386;13.278;2022-12-07T01:29:39;27.70;;;13.95;;
46322;SDS011;32044;52.386;13.278;2022-12-07T01:32:05;23.67;;;13.35;;
46322;SDS011;32044;52.386;13.278;2022-12-07T01:34:30;24.38;;;13.80;;
46322;SDS011;32044;52.386;13.278;2022-12-07T01:36:55;20.95;;;12.05;;
46322;SDS011;32044;52.386;13.278;2022-12-07T01:39:21;21.90;;;12.98;;
46322;SDS011;32044;52.386;13.278;2022-12-07T01:41:46;21.27;;;12.63;;
46322;SDS011;32044;52.386;13.278;2022-12-07T01:46:42;21.52;;;12.48;;
46322;SDS011;32044;52.386;13.278;2022-12-07T01:49:10;19.10;;;11.43;;
46322;SDS011;32044;52.386;13.278;2022-12-07T01:51:40;22.05;;;13.02;;
46322;SDS011;32044;52.386;13.278;2022-12-07T01:54:06;20.17;;;11.60;;
46322;SDS011;32044;52.386;13.278;2022-12-07T01:56:32;20.92;;;11.82;;
46322;SDS011;32044;52.386;13.278;2022-12-07T01:58:58;22.60;;;11.85;;
46322;SDS011;32044;52.386;13.278;2022-12-07T02:01:25;18.92;;;11.90;;
46322;SDS011;32044;52.386;13.278;2022-12-07T02:03:50;22.35;;;12.07;;
46322;SDS011;32044;52.386;13.278;2022-12-07T02:06:17;20.63;;;11.75;;
46322;SDS011;32044;52.386;13.278;2022-12-07T02:08:44;21.05;;;11.38;;
46322;SDS011;32044;52.386;13.278;2022-12-07T02:11:11;20.83;;;11.82;;
46322;SDS011;32044;52.386;13.278;2022-12-07T02:13:37;19.20;;;11.23;;
46322;SDS011;32044;52.386;13.278;2022-12-07T02:21:52;19.17;;;10.95;;
46322;SDS011;32044;52.386;13.278;2022-12-07T02:24:30;22.00;;;11.38;;
46322;SDS011;32044;52.386;13.278;2022-12-07T02:27:19;20.80;;;12.57;;
46322;SDS011;32044;52.386;13.278;2022-12-07T02:38:14;17.75;;;10.82;;
46322;SDS011;32044;52.386;13.278;2022-12-07T02:40:43;19.75;;;10.82;;
46322;SDS011;32044;52.386;13.278;2022-12-07T02:45:41;20.20;;;10.63;;
46322;SDS011;32044;52.386;13.278;2022-12-07T02:48:07;18.83;;;10.88;;
46322;SDS011;32044;52.386;13.278;2022-12-07T02:50:33;20.25;;;10.93;;
46322;SDS011;32044;52.386;13.278;2022-12-07T02:52:59;22.05;;;11.98;;
46322;SDS011;32044;52.386;13.278;2022-12-07T02:55:28;21.30;;;11.10;;
46322;SDS011;32044;52.386;13.278;2022-12-07T03:00:30;20.77;;;10.30;;
46322;SDS011;32044;52.386;13.278;2022-12-07T03:02:59;19.15;;;11.13;;
46322;SDS011;32044;52.386;13.278;2022-12-07T03:16:18;31.10;;;13.02;;
46322;SDS011;32044;52.386;13.278;2022-12-07T03:21:23;24.30;;;12.48;;
46322;SDS011;32044;52.386;13.278;2022-12-07T03:23:54;30.55;;;13.52;;
46322;SDS011;32044;52.386;13.278;2022-12-07T03:26:21;27.13;;;13.45;;
46322;SDS011;32044;52.386;13.278;2022-12-07T03:28:52;26.38;;;12.90;;
46322;SDS011;32044;52.386;13.278;2022-12-07T03:31:29;24.27;;;12.00;;
46322;SDS011;32044;52.386;13.278;2022-12-07T03:36:54;30.08;;;14.43;;
46322;SDS011;32044;52.386;13.278;2022-12-07T03:39:23;26.63;;;13.45;;
46322;SDS011;32044;52.386;13.278;2022-12-07T03:42:07;28.23;;;13.32;;
46322;SDS011;32044;52.386;13.278;2022-12-07T03:44:35;29.13;;;14.43;;
46322;SDS011;32044;52.386;13.278;2022-12-07T03:49:44;32.00;;;15.43;;
46322;SDS011;32044;52.386;13.278;2022-12-07T03:55:24;41.72;;;18.23;;
46322;SDS011;32044;52.386;13.278;2022-12-07T03:57:51;36.00;;;17.02;;
46322;SDS011;32044;52.386;13.278;2022-12-07T04:00:18;40.85;;;17.85;;
46322;SDS011;32044;52.386;13.278;2022-12-07T04:02:44;37.67;;;18.38;;
46322;SDS011;32044;52.386;13.278;2022-12-07T04:05:09;37.47;;;18.40;;
46322;SDS011;32044;52.386;13.278;2022-12-07T04:07:35;37.50;;;17.40;;
46322;SDS011;32044;52.386;13.278;2022-12-07T04:10:01;40.90;;;17.92;;
46322;SDS011;32044;52.386;13.278;2022-12-07T04:12:26;40.38;;;18.70;;
46322;SDS011;32044;52.386;13.278;2022-12-07T04:14:51;45.85;;;18.92;;
46322;SDS011;32044;52.386;13.278;2022-12-07T04:17:16;38.30;;;19.17;;
46322;SDS011;32044;52.386;13.278;2022-12-07T04:19:42;37.58;;;18.73;;
46322;SDS011;32044;52.386;13.278;2022-12-07T04:22:07;36.35;;;19.10;;
46322;SDS011;32044;52.386;13.278;2022-12-07T04:24:33;36.35;;;19.88;;
46322;SDS011;32044;52.386;13.278;2022-12-07T04:26:58;38.00;;;19.10;;
46322;SDS011;32044;52.386;13.278;2022-12-07T04:29:24;39.63;;;19.60;;
46322;SDS011;32044;52.386;13.278;2022-12-07T04:31:50;38.33;;;19.17;;
46322;SDS011;32044;52.386;13.278;2022-12-07T04:34:15;37.78;;;19.55;;
46322;SDS011;32044;52.386;13.278;2022-12-07T04:36:41;41.45;;;19.98;;
46322;SDS011;32044;52.386;13.278;2022-12-07T04:39:07;41.03;;;19.42;;
46322;SDS011;32044;52.386;13.278;2022-12-07T04:41:33;39.03;;;19.40;;
46322;SDS011;32044;52.386;13.278;2022-12-07T04:44:00;44.65;;;20.55;;
46322;SDS011;32044;52.386;13.278;2022-12-07T04:46:27;41.55;;;21.02;;
46322;SDS011;32044;52.386;13.278;2022-12-07T04:48:54;47.13;;;21.80;;
46322;SDS011;32044;52.386;13.278;2022-12-07T04:51:20;44.25;;;21.30;;
46322;SDS011;32044;52.386;13.278;2022-12-07T04:53:47;51.03;;;22.42;;
46322;SDS011;32044;52.386;13.278;2022-12-07T04:56:13;46.75;;;21.83;;
46322;SDS011;32044;52.386;13.278;2022-12-07T04:58:38;44.78;;;21.58;;
46322;SDS011;32044;52.386;13.278;2022-12-07T05:01:04;43.85;;;22.08;;
46322;SDS011;32044;52.386;13.278;2022-12-07T05:03:29;48.38;;;22.65;;
46322;SDS011;32044;52.386;13.278;2022-12-07T05:05:54;46.72;;;22.33;;
46322;SDS011;32044;52.386;13.278;2022-12-07T05:08:19;48.92;;;23.02;;
46322;SDS011;32044;52.386;13.278;2022-12-07T05:10:45;45.88;;;21.63;;
46322;SDS011;32044;52.386;13.278;2022-12-07T05:13:10;47.95;;;23.27;;
46322;SDS011;32044;52.386;13.278;2022-12-07T05:15:35;50.55;;;24.25;;
46322;SDS011;32044;52.386;13.278;2022-12-07T05:18:01;47.47;;;23.52;;
46322;SDS011;32044;52.386;13.278;2022-12-07T05:20:26;47.38;;;24.15;;
46322;SDS011;32044;52.386;13.278;2022-12-07T05:22:51;47.10;;;22.58;;
46322;SDS011;32044;52.386;13.278;2022-12-07T05:25:16;50.45;;;24.48;;
46322;SDS011;32044;52.386;13.278;2022-12-07T05:27:42;51.25;;;25.90;;
46322;SDS011;32044;52.386;13.278;2022-12-07T05:30:07;49.10;;;25.58;;
46322;SDS011;32044;52.386;13.278;2022-12-07T05:32:33;50.30;;;24.40;;
46322;SDS011;32044;52.386;13.278;2022-12-07T05:34:58;55.90;;;25.48;;
46322;SDS011;32044;52.386;13.278;2022-12-07T05:37:23;55.88;;;25.17;;
46322;SDS011;32044;52.386;13.278;2022-12-07T05:39:49;52.03;;;25.05;;
46322;SDS011;32044;52.386;13.278;2022-12-07T05:42:14;52.55;;;25.70;;
46322;SDS011;32044;52.386;13.278;2022-12-07T05:44:43;55.03;;;26.65;;
46322;SDS011;32044;52.386;13.278;2022-12-07T05:47:10;55.33;;;25.58;;
46322;SDS011;32044;52.386;13.278;2022-12-07T05:49:36;52.42;;;25.17;;
46322;SDS011;32044;52.386;13.278;2022-12-07T05:52:01;61.88;;;26.45;;
46322;SDS011;32044;52.386;13.278;2022-12-07T05:54:27;55.17;;;27.05;;
46322;SDS011;32044;52.386;13.278;2022-12-07T05:56:52;64.20;;;28.63;;
46322;SDS011;32044;52.386;13.278;2022-12-07T05:59:18;62.38;;;28.25;;
46322;SDS011;32044;52.386;13.278;2022-12-07T06:04:18;57.08;;;27.52;;
46322;SDS011;32044;52.386;13.278;2022-12-07T06:06:44;55.28;;;25.38;;
46322;SDS011;32044;52.386;13.278;2022-12-07T06:09:09;63.05;;;27.38;;
46322;SDS011;32044;52.386;13.278;2022-12-07T06:11:35;58.17;;;26.75;;
46322;SDS011;32044;52.386;13.278;2022-12-07T06:14:19;57.38;;;26.75;;
46322;SDS011;32044;52.386;13.278;2022-12-07T06:16:44;56.15;;;27.05;;
46322;SDS011;32044;52.386;13.278;2022-12-07T06:19:10;59.50;;;27.55;;
46322;SDS011;32044;52.386;13.278;2022-12-07T06:21:35;57.90;;;25.90;;
46322;SDS011;32044;52.386;13.278;2022-12-07T06:24:00;57.92;;;27.08;;
46322;SDS011;32044;52.386;13.278;2022-12-07T06:26:26;60.25;;;29.42;;
46322;SDS011;32044;52.386;13.278;2022-12-07T06:28:52;61.58;;;29.23;;
46322;SDS011;32044;52.386;13.278;2022-12-07T06:31:17;62.63;;;28.95;;
46322;SDS011;32044;52.386;13.278;2022-12-07T06:33:42;51.72;;;27.73;;
46322;SDS011;32044;52.386;13.278;2022-12-07T06:36:08;61.20;;;29.48;;
46322;SDS011;32044;52.386;13.278;2022-12-07T06:38:34;54.10;;;26.63;;
46322;SDS011;32044;52.386;13.278;2022-12-07T06:40:59;56.38;;;27.05;;
46322;SDS011;32044;52.386;13.278;2022-12-07T06:43:24;54.30;;;28.33;;
46322;SDS011;32044;52.386;13.278;2022-12-07T06:45:50;55.47;;;27.48;;
46322;SDS011;32044;52.386;13.278;2022-12-07T06:48:15;53.03;;;27.55;;
46322;SDS011;32044;52.386;13.278;2022-12-07T06:50:41;56.45;;;27.33;;
46322;SDS011;32044;52.386;13.278;2022-12-07T06:53:06;56.05;;;27.25;;
46322;SDS011;32044;52.386;13.278;2022-12-07T06:55:32;54.65;;;26.77;;
46322;SDS011;32044;52.386;13.278;2022-12-07T06:57:58;61.35;;;26.95;;
46322;SDS011;32044;52.386;13.278;2022-12-07T07:00:23;59.13;;;27.77;;
46322;SDS011;32044;52.386;13.278;2022-12-07T07:02:48;57.75;;;27.52;;
46322;SDS011;32044;52.386;13.278;2022-12-07T07:05:14;51.30;;;26.77;;
46322;SDS011;32044;52.386;13.278;2022-12-07T07:07:40;47.80;;;26.25;;
46322;SDS011;32044;52.386;13.278;2022-12-07T07:10:06;50.67;;;27.25;;
46322;SDS011;32044;52.386;13.278;2022-12-07T07:12:31;49.97;;;25.92;;
46322;SDS011;32044;52.386;13.278;2022-12-07T07:14:56;60.30;;;27.25;;
46322;SDS011;32044;52.386;13.278;2022-12-07T07:17:22;57.38;;;27.10;;
46322;SDS011;32044;52.386;13.278;2022-12-07T07:19:47;48.67;;;25.33;;
46322;SDS011;32044;52.386;13.278;2022-12-07T07:22:12;53.35;;;26.27;;
46322;SDS011;32044;52.386;13.278;2022-12-07T07:24:37;49.90;;;26.27;;
46322;SDS011;32044;52.386;13.278;2022-12-07T07:27:03;46.95;;;24.92;;
46322;SDS011;32044;52.386;13.278;2022-12-07T07:29:28;56.47;;;27.45;;
46322;SDS011;32044;52.386;13.278;2022-12-07T07:31:53;49.97;;;24.88;;
46322;SDS011;32044;52.386;13.278;2022-12-07T07:34:18;47.30;;;24.75;;
46322;SDS011;32044;52.386;13.278;2022-12-07T07:36:44;52.72;;;24.75;;
46322;SDS011;32044;52.386;13.278;2022-12-07T07:39:09;46.35;;;23.55;;
46322;SDS011;32044;52.386;13.278;2022-12-07T07:41:37;51.22;;;25.48;;
46322;SDS011;32044;52.386;13.278;2022-12-07T07:44:02;42.83;;;23.75;;
46322;SDS011;32044;52.386;13.278;2022-12-07T07:46:28;41.90;;;22.35;;
46322;SDS011;32044;52.386;13.278;2022-12-07T07:48:53;36.20;;;21.35;;
46322;SDS011;32044;52.386;13.278;2022-12-07T07:51:18;39.28;;;21.25;;
46322;SDS011;32044;52.386;13.278;2022-12-07T07:53:43;39.08;;;19.13;;
46322;SDS011;32044;52.386;13.278;2022-12-07T07:56:09;29.35;;;18.20;;
46322;SDS011;32044;52.386;13.278;2022-12-07T07:58:34;32.38;;;17.65;;
46322;SDS011;32044;52.386;13.278;2022-12-07T08:01:04;30.80;;;16.63;;
46322;SDS011;32044;52.386;13.278;2022-12-07T08:03:32;34.60;;;17.30;;
46322;SDS011;32044;52.386;13.278;2022-12-07T08:06:06;35.75;;;18.65;;
46322;SDS011;32044;52.386;13.278;2022-12-07T08:08:32;33.00;;;17.80;;
46322;SDS011;32044;52.386;13.278;2022-12-07T08:10:57;28.75;;;16.33;;
46322;SDS011;32044;52.386;13.278;2022-12-07T08:13:25;28.23;;;17.17;;
46322;SDS011;32044;52.386;13.278;2022-12-07T08:15:51;30.60;;;17.08;;
46322;SDS011;32044;52.386;13.278;2022-12-07T08:18:16;33.78;;;16.77;;
46322;SDS011;32044;52.386;13.278;2022-12-07T08:20:42;28.15;;;15.65;;
46322;SDS011;32044;52.386;13.278;2022-12-07T08:23:07;31.92;;;15.85;;
46322;SDS011;32044;52.386;13.278;2022-12-07T08:25:33;26.48;;;14.43;;
46322;SDS011;32044;52.386;13.278;2022-12-07T08:27:59;25.08;;;12.60;;
46322;SDS011;32044;52.386;13.278;2022-12-07T08:30:25;23.20;;;13.63;;
46322;SDS011;32044;52.386;13.278;2022-12-07T08:32:50;27.05;;;14.55;;
46322;SDS011;32044;52.386;13.278;2022-12-07T08:35:16;26.35;;;13.93;;
46322;SDS011;32044;52.386;13.278;2022-12-07T08:37:41;20.58;;;11.27;;
46322;SDS011;32044;52.386;13.278;2022-12-07T08:40:07;17.80;;;10.48;;
46322;SDS011;32044;52.386;13.278;2022-12-07T08:42:33;17.70;;;10.30;;
46322;SDS011;32044;52.386;13.278;2022-12-07T08:45:09;22.83;;;10.73;;
46322;SDS011;32044;52.386;13.278;2022-12-07T08:47:40;17.23;;;9.40;;
46322;SDS011;32044;52.386;13.278;2022-12-07T08:52:32;17.40;;;7.77;;
46322;SDS011;32044;52.386;13.278;2022-12-07T08:54:59;19.83;;;8.25;;
46322;SDS011;32044;52.386;13.278;2022-12-07T08:57:24;11.15;;;7.18;;
46322;SDS011;32044;52.386;13.278;2022-12-07T08:59:50;13.65;;;6.03;;
46322;SDS011;32044;52.386;13.278;2022-12-07T09:02:15;6.82;;;4.20;;
46322;SDS011;32044;52.386;13.278;2022-12-07T09:04:40;6.90;;;4.10;;
46322;SDS011;32044;52.386;13.278;2022-12-07T09:07:06;6.85;;;4.57;;
46322;SDS011;32044;52.386;13.278;2022-12-07T09:09:31;7.55;;;3.70;;
46322;SDS011;32044;52.386;13.278;2022-12-07T09:11:56;4.85;;;3.88;;
46322;SDS011;32044;52.386;13.278;2022-12-07T09:14:22;6.15;;;4.00;;
46322;SDS011;32044;52.386;13.278;2022-12-07T09:16:47;7.18;;;4.07;;
46322;SDS011;32044;52.386;13.278;2022-12-07T09:19:13;7.68;;;4.20;;
46322;SDS011;32044;52.386;13.278;2022-12-07T09:21:38;5.45;;;3.88;;
46322;SDS011;32044;52.386;13.278;2022-12-07T09:24:03;4.75;;;3.42;;
46322;SDS011;32044;52.386;13.278;2022-12-07T09:26:29;5.18;;;3.85;;
46322;SDS011;32044;52.386;13.278;2022-12-07T09:28:54;8.23;;;4.10;;
46322;SDS011;32044;52.386;13.278;2022-12-07T09:31:19;6.55;;;4.03;;
46322;SDS011;32044;52.386;13.278;2022-12-07T09:33:44;7.18;;;4.32;;
46322;SDS011;32044;52.386;13.278;2022-12-07T09:36:10;7.03;;;4.03;;
46322;SDS011;32044;52.386;13.278;2022-12-07T09:38:35;7.80;;;5.07;;
46322;SDS011;32044;52.386;13.278;2022-12-07T09:41:07;9.98;;;4.55;;
46322;SDS011;32044;52.386;13.278;2022-12-07T09:45:58;12.38;;;3.85;;
46322;SDS011;32044;52.386;13.278;2022-12-07T09:51:01;4.85;;;2.63;;
46322;SDS011;32044;52.386;13.278;2022-12-07T09:53:30;7.05;;;3.13;;
46322;SDS011;32044;52.386;13.278;2022-12-07T09:55:59;4.70;;;2.97;;
46322;SDS011;32044;52.386;13.278;2022-12-07T09:58:25;5.07;;;2.67;;
46322;SDS011;32044;52.386;13.278;2022-12-07T10:00:53;3.85;;;3.08;;
46322;SDS011;32044;52.386;13.278;2022-12-07T10:03:21;6.60;;;2.83;;
46322;SDS011;32044;52.386;13.278;2022-12-07T10:05:47;3.60;;;2.90;;
46322;SDS011;32044;52.386;13.278;2022-12-07T10:08:14;5.28;;;2.55;;
46322;SDS011;32044;52.386;13.278;2022-12-07T10:10:42;5.65;;;3.50;;
46322;SDS011;32044;52.386;13.278;2022-12-07T10:13:08;4.53;;;3.25;;
46322;SDS011;32044;52.386;13.278;2022-12-07T10:15:42;8.52;;;3.00;;
46322;SDS011;32044;52.386;13.278;2022-12-07T10:21:02;5.82;;;2.72;;
46322;SDS011;32044;52.386;13.278;2022-12-07T10:23:28;7.95;;;3.10;;
46322;SDS011;32044;52.386;13.278;2022-12-07T10:25:53;4.82;;;3.10;;
46322;SDS011;32044;52.386;13.278;2022-12-07T10:28:20;5.72;;;3.28;;
46322;SDS011;32044;52.386;13.278;2022-12-07T10:33:33;7.85;;;4.22;;
46322;SDS011;32044;52.386;13.278;2022-12-07T10:38:27;5.60;;;3.67;;
46322;SDS011;32044;52.386;13.278;2022-12-07T10:41:03;6.63;;;3.90;;
46322;SDS011;32044;52.386;13.278;2022-12-07T10:43:30;9.50;;;4.57;;
46322;SDS011;32044;52.386;13.278;2022-12-07T10:46:13;8.82;;;4.78;;
46322;SDS011;32044;52.386;13.278;2022-12-07T10:49:07;5.78;;;4.45;;
46322;SDS011;32044;52.386;13.278;2022-12-07T10:51:52;10.68;;;4.82;;
46322;SDS011;32044;52.386;13.278;2022-12-07T10:54:34;8.15;;;4.43;;
46322;SDS011;32044;52.386;13.278;2022-12-07T11:03:04;4.90;;;2.92;;
46322;SDS011;32044;52.386;13.278;2022-12-07T11:05:43;9.77;;;4.90;;
46322;SDS011;32044;52.386;13.278;2022-12-07T11:08:33;6.78;;;4.10;;
46322;SDS011;32044;52.386;13.278;2022-12-07T11:13:44;7.60;;;4.47;;
46322;SDS011;32044;52.386;13.278;2022-12-07T11:17:04;10.27;;;4.32;;
46322;SDS011;32044;52.386;13.278;2022-12-07T11:19:22;8.35;;;3.83;;
46322;SDS011;32044;52.386;13.278;2022-12-07T11:21:58;6.93;;;4.13;;
46322;SDS011;32044;52.386;13.278;2022-12-07T11:24:48;10.75;;;4.25;;
46322;SDS011;32044;52.386;13.278;2022-12-07T11:27:19;6.75;;;4.35;;
46322;SDS011;32044;52.386;13.278;2022-12-07T11:32:42;8.50;;;4.10;;
46322;SDS011;32044;52.386;13.278;2022-12-07T11:35:30;10.10;;;3.97;;
46322;SDS011;32044;52.386;13.278;2022-12-07T11:38:10;8.60;;;3.90;;
46322;SDS011;32044;52.386;13.278;2022-12-07T11:40:40;4.78;;;3.53;;
46322;SDS011;32044;52.386;13.278;2022-12-07T11:43:18;7.50;;;3.90;;
46322;SDS011;32044;52.386;13.278;2022-12-07T11:46:11;9.43;;;4.15;;
46322;SDS011;32044;52.386;13.278;2022-12-07T11:49:22;5.95;;;3.78;;
46322;SDS011;32044;52.386;13.278;2022-12-07T11:51:48;5.93;;;3.70;;
46322;SDS011;32044;52.386;13.278;2022-12-07T11:54:18;7.50;;;3.72;;
46322;SDS011;32044;52.386;13.278;2022-12-07T11:56:46;5.68;;;3.00;;
46322;SDS011;32044;52.386;13.278;2022-12-07T11:59:17;8.30;;;3.42;;
46322;SDS011;32044;52.386;13.278;2022-12-07T12:01:53;9.77;;;3.47;;
46322;SDS011;32044;52.386;13.278;2022-12-07T12:07:14;8.13;;;3.20;;
46322;SDS011;32044;52.386;13.278;2022-12-07T12:09:48;6.53;;;3.47;;
46322;SDS011;32044;52.386;13.278;2022-12-07T12:19:11;12.68;;;3.90;;
46322;SDS011;32044;52.386;13.278;2022-12-07T12:21:14;7.82;;;3.60;;
46322;SDS011;32044;52.386;13.278;2022-12-07T12:23:43;11.82;;;3.60;;
46322;SDS011;32044;52.386;13.278;2022-12-07T12:26:18;5.10;;;3.25;;
46322;SDS011;32044;52.386;13.278;2022-12-07T12:33:59;6.28;;;3.10;;
46322;SDS011;32044;52.386;13.278;2022-12-07T12:54:24;9.45;;;2.67;;
46322;SDS011;32044;52.386;13.278;2022-12-07T12:56:52;10.18;;;2.63;;
46322;SDS011;32044;52.386;13.278;2022-12-07T12:59:24;10.55;;;3.55;;
46322;SDS011;32044;52.386;13.278;2022-12-07T13:01:51;5.80;;;2.70;;
46322;SDS011;32044;52.386;13.278;2022-12-07T13:04:24;5.47;;;3.05;;
46322;SDS011;32044;52.386;13.278;2022-12-07T13:06:50;7.20;;;3.25;;
46322;SDS011;32044;52.386;13.278;2022-12-07T13:09:27;6.07;;;3.10;;
46322;SDS011;32044;52.386;13.278;2022-12-07T13:12:01;7.05;;;2.63;;
46322;SDS011;32044;52.386;13.278;2022-12-07T13:14:42;8.57;;;2.92;;
46322;SDS011;32044;52.386;13.278;2022-12-07T13:19:55;3.25;;;2.30;;
46322;SDS011;32044;52.386;13.278;2022-12-07T13:24:57;5.32;;;2.08;;
46322;SDS011;32044;52.386;13.278;2022-12-07T13:27:26;7.15;;;3.00;;
46322;SDS011;32044;52.386;13.278;2022-12-07T13:29:52;10.05;;;2.35;;
46322;SDS011;32044;52.386;13.278;2022-12-07T13:32:24;8.50;;;2.80;;
46322;SDS011;32044;52.386;13.278;2022-12-07T13:34:51;6.28;;;3.60;;
46322;SDS011;32044;52.386;13.278;2022-12-07T13:39:46;9.70;;;2.88;;
46322;SDS011;32044;52.386;13.278;2022-12-07T13:42:31;5.88;;;3.30;;
46322;SDS011;32044;52.386;13.278;2022-12-07T13:44:59;8.52;;;3.28;;
46322;SDS011;32044;52.386;13.278;2022-12-07T13:47:36;10.43;;;5.13;;
46322;SDS011;32044;52.386;13.278;2022-12-07T13:52:55;18.80;;;4.85;;
46322;SDS011;32044;52.386;13.278;2022-12-07T13:55:21;10.68;;;4.07;;
46322;SDS011;32044;52.386;13.278;2022-12-07T13:57:47;7.32;;;3.33;;
46322;SDS011;32044;52.386;13.278;2022-12-07T14:00:19;6.03;;;2.65;;
46322;SDS011;32044;52.386;13.278;2022-12-07T14:02:59;10.50;;;3.25;;
46322;SDS011;32044;52.386;13.278;2022-12-07T14:05:25;10.63;;;4.53;;
46322;SDS011;32044;52.386;13.278;2022-12-07T14:07:59;6.18;;;3.33;;
46322;SDS011;32044;52.386;13.278;2022-12-07T14:10:26;8.60;;;2.75;;
46322;SDS011;32044;52.386;13.278;2022-12-07T14:12:53;9.00;;;3.08;;
46322;SDS011;32044;52.386;13.278;2022-12-07T14:15:20;9.90;;;3.28;;
46322;SDS011;32044;52.386;13.278;2022-12-07T14:17:53;15.40;;;3.92;;
46322;SDS011;32044;52.386;13.278;2022-12-07T14:20:29;5.95;;;3.30;;
46322;SDS011;32044;52.386;13.278;2022-12-07T14:23:01;12.40;;;3.05;;
46322;SDS011;32044;52.386;13.278;2022-12-07T14:25:44;11.02;;;3.53;;
46322;SDS011;32044;52.386;13.278;2022-12-07T14:28:24;7.50;;;4.00;;
46322;SDS011;32044;52.386;13.278;2022-12-07T14:30:51;9.15;;;3.58;;
46322;SDS011;32044;52.386;13.278;2022-12-07T14:33:16;10.00;;;3.10;;
46322;SDS011;32044;52.386;13.278;2022-12-07T14:35:42;5.22;;;2.88;;
46322;SDS011;32044;52.386;13.278;2022-12-07T14:38:07;9.25;;;3.50;;
46322;SDS011;32044;52.386;13.278;2022-12-07T14:40:32;6.53;;;3.20;;
46322;SDS011;32044;52.386;13.278;2022-12-07T14:45:25;11.77;;;3.25;;
46322;SDS011;32044;52.386;13.278;2022-12-07T14:47:50;9.35;;;3.17;;
46322;SDS011;32044;52.386;13.278;2022-12-07T14:50:17;12.15;;;3.75;;
46322;SDS011;32044;52.386;13.278;2022-12-07T14:52:44;8.65;;;3.30;;
46322;SDS011;32044;52.386;13.278;2022-12-07T14:55:18;9.38;;;3.25;;
46322;SDS011;32044;52.386;13.278;2022-12-07T14:57:45;10.32;;;3.42;;
46322;SDS011;32044;52.386;13.278;2022-12-07T15:00:13;7.65;;;3.70;;
46322;SDS011;32044;52.386;13.278;2022-12-07T15:02:39;9.25;;;3.13;;
46322;SDS011;32044;52.386;13.278;2022-12-07T15:05:04;8.35;;;2.65;;
46322;SDS011;32044;52.386;13.278;2022-12-07T15:07:30;9.80;;;2.80;;
46322;SDS011;32044;52.386;13.278;2022-12-07T15:09:55;8.75;;;3.53;;
46322;SDS011;32044;52.386;13.278;2022-12-07T15:12:20;14.60;;;2.95;;
46322;SDS011;32044;52.386;13.278;2022-12-07T15:14:46;6.30;;;2.60;;
46322;SDS011;32044;52.386;13.278;2022-12-07T15:17:11;9.82;;;2.78;;
46322;SDS011;32044;52.386;13.278;2022-12-07T15:19:37;7.75;;;3.40;;
46322;SDS011;32044;52.386;13.278;2022-12-07T15:22:03;12.32;;;3.50;;
46322;SDS011;32044;52.386;13.278;2022-12-07T15:24:28;11.10;;;3.70;;
46322;SDS011;32044;52.386;13.278;2022-12-07T15:26:54;11.93;;;3.30;;
46322;SDS011;32044;52.386;13.278;2022-12-07T15:29:19;9.32;;;3.50;;
46322;SDS011;32044;52.386;13.278;2022-12-07T15:31:44;11.32;;;2.80;;
46322;SDS011;32044;52.386;13.278;2022-12-07T15:34:10;6.25;;;3.10;;
46322;SDS011;32044;52.386;13.278;2022-12-07T15:36:35;8.85;;;3.17;;
46322;SDS011;32044;52.386;13.278;2022-12-07T15:39:01;10.48;;;3.25;;
46322;SDS011;32044;52.386;13.278;2022-12-07T15:41:26;11.80;;;2.67;;
46322;SDS011;32044;52.386;13.278;2022-12-07T15:43:52;10.73;;;3.20;;
46322;SDS011;32044;52.386;13.278;2022-12-07T15:46:37;13.10;;;3.65;;
46322;SDS011;32044;52.386;13.278;2022-12-07T15:49:06;10.32;;;3.38;;
46322;SDS011;32044;52.386;13.278;2022-12-07T15:51:38;10.30;;;3.47;;
46322;SDS011;32044;52.386;13.278;2022-12-07T15:54:03;9.85;;;3.20;;
46322;SDS011;32044;52.386;13.278;2022-12-07T15:56:29;7.60;;;3.35;;
46322;SDS011;32044;52.386;13.278;2022-12-07T15:58:55;13.07;;;3.88;;
46322;SDS011;32044;52.386;13.278;2022-12-07T16:01:21;11.52;;;3.80;;
46322;SDS011;32044;52.386;13.278;2022-12-07T16:03:46;7.25;;;3.63;;
46322;SDS011;32044;52.386;13.278;2022-12-07T16:06:12;7.53;;;3.83;;
46322;SDS011;32044;52.386;13.278;2022-12-07T16:08:41;9.45;;;4.25;;
46322;SDS011;32044;52.386;13.278;2022-12-07T16:11:08;13.10;;;4.10;;
46322;SDS011;32044;52.386;13.278;2022-12-07T16:13:33;11.65;;;3.72;;
46322;SDS011;32044;52.386;13.278;2022-12-07T16:16:02;10.70;;;3.75;;
46322;SDS011;32044;52.386;13.278;2022-12-07T16:18:46;6.07;;;3.45;;
46322;SDS011;32044;52.386;13.278;2022-12-07T16:21:13;12.20;;;3.53;;
46322;SDS011;32044;52.386;13.278;2022-12-07T16:23:38;14.02;;;3.83;;